McGrath, AK

8:21 AM AKDT on July 30, 2014 (GMT -0800)
McGrath (PAMC) Elev 338 ft | 62.95 °N, 155.61 °W | Change Station

Current weather conditions updated 28 minutes ago

Partly Cloudy
Partly Cloudy
53 °F
Feels Like 53 °F
N
5
Wind Variable Wind from West

Today is forecast to be Warmer than yesterday.

Today
High -- | Low -- °F
--% Chance of Precip.
Yesterday
High -- | Low -- °F
Precip. -- in
5:33 AM 11:17 PM
Waxing Crescent, 12% visible
Pressure 30.20 in
Visibility 10.0 miles
Clouds Few 20000 ft
Dew Point 45 °F
Humidity 74%
Rainfall 0.00 in
Snow Depth Not available.
UV 1 out of 12
Pollen Not available.
Air Quality Not available.
Flu Activity Not available.
METAR PAMC 301553Z 28004KT 10SM FEW200 12/07 A3019 RMK AO2 SLP227 T01170072

More Conditions Fewer Conditions

Pressure 30.20 in
Visibility 10.0 miles
Clouds Few 20000 ft
Dew Point 45 °F
Humidity 74%
Rainfall 0.00 in
Snow Depth Not available.
UV 1 out of 12
Pollen Not available.
Air Quality Not available.
Flu Activity Not available.
METAR PAMC 301553Z 28004KT 10SM FEW200 12/07 A3019 RMK AO2 SLP227 T01170072

More Conditions Fewer Conditions

10-Day Weather Forecast

Almanac

Astronomy

Jul. 30, 2014 Rise Set
Actual Time 5:33 AM AKDT 11:17 PM AKDT
Civil Twilight 4:12 AM AKDT 12:35 AM AKDT
Nautical Twilight Sun does not rise Sun does not rise
Astronomical Twilight Sun does not rise Sun does not rise
Moon 10:50 AM AKDT 11:21 PM AKDT
Length of Visible Light 20h 23m
Length of Day
17h 44m
Tomorrow will be 5m 52s shorter.
Waxing Crescent, 12% of the Moon is Illuminated
Today
Waxing Crescent
Aug 3
First Quarter
Aug 10
Full
Aug 17
Last Quarter
Aug 25
New

Today's Extremes

State Highs State Lows

Community

WunderPhotos

Upload Photos

1,739,129 photos uploaded!

WunderBlogs® & News

By Dr. Jeff Masters
Director of Meteorology, Weather Underground
By Kari Strenfel
Meteorologist, Weather Underground
By Christopher C. Burt
Weather Historian, Weather Underground
July 30, 2014
July 30, 2014
July 30, 2014

Nearby

Snow Depth

Station Depth Elevation
Susitna Valley High 2 in 375 ft
Point Mackenzie 1 in 200 ft
Indian Pass 2 in 2300 ft
Summit Creek 0 in 1400 ft
Turnagain Pass 0 in 1880 ft

Earthquake Activity

City Distance Mag. Time & Date
No recent earthquake activity has been reported nearby.
Minimum magnitude displayed is 2.5.

Coastal Water Temperatures

Place Temperature
No Stations Reporting

Nearby Weather Stations

There are no personal weather stations in this area.